createdAt,value
2022-07-30T00:03:24.826Z,100038.53
2022-07-30T00:08:25.593Z,100037.59
2022-07-30T00:13:26.306Z,100049.44
2022-07-30T00:18:28.235Z,100060.63
2022-07-30T00:23:28.841Z,100063.47
2022-07-30T00:28:29.525Z,100070.56
2022-07-30T00:33:31.481Z,100066.59
2022-07-30T00:38:32.130Z,100065.97
2022-07-30T00:43:32.758Z,100067.72
2022-07-30T00:48:34.736Z,100068.72
2022-07-30T00:53:36.189Z,100048.75
2022-07-30T00:58:37.529Z,100045.69
2022-07-30T01:03:39.798Z,100052.75
2022-07-30T01:08:40.671Z,100044.53
2022-07-30T01:13:41.575Z,100042.84
2022-07-30T01:19:00.037Z,100051.97
2022-07-30T01:24:12.798Z,100053.66
2022-07-30T01:29:16.988Z,100053.34
2022-07-30T01:34:19.095Z,100049.97
2022-07-30T01:39:21.290Z,100052.13
2022-07-30T01:44:26.839Z,100042.00
2022-07-30T01:49:29.964Z,100029.47
2022-07-30T01:54:32.863Z,100043.41
2022-07-30T01:59:36.648Z,100037.72
2022-07-30T02:04:37.316Z,100038.50
2022-07-30T02:09:47.272Z,100035.97
2022-07-30T02:14:53.461Z,100026.03
2022-07-30T02:19:57.609Z,100031.63
2022-07-30T02:25:01.880Z,100032.69
2022-07-30T02:30:06.218Z,100037.88
2022-07-30T02:35:12.581Z,100040.78
2022-07-30T02:40:16.785Z,100039.31
2022-07-30T02:45:20.030Z,100042.19
2022-07-30T02:50:21.741Z,100051.28
2022-07-30T02:55:23.994Z,100050.13
2022-07-30T03:00:26.879Z,100057.78
2022-07-30T03:05:28.821Z,100050.13
2022-07-30T03:10:31.860Z,100057.47
2022-07-30T03:15:35.219Z,100051.03
2022-07-30T03:20:41.757Z,100045.78
2022-07-30T03:25:43.819Z,100039.56
2022-07-30T03:30:46.003Z,100045.50
2022-07-30T03:35:47.194Z,100045.44
2022-07-30T03:40:48.643Z,100052.03
2022-07-30T03:45:52.108Z,100043.84
2022-07-30T03:50:55.493Z,100050.50
2022-07-30T03:55:57.669Z,100050.88
2022-07-30T04:01:27.158Z,100050.59
2022-07-30T04:06:32.810Z,100042.00
2022-07-30T04:11:40.853Z,100051.50
2022-07-30T04:16:51.795Z,100054.94
2022-07-30T04:21:59.465Z,100045.22
2022-07-30T04:27:02.019Z,100053.19
2022-07-30T04:32:04.993Z,100055.84
2022-07-30T04:37:27.364Z,100050.72
2022-07-30T04:42:29.797Z,100048.91
2022-07-30T04:47:38.836Z,100053.59
2022-07-30T04:53:03.721Z,100052.91
2022-07-30T04:58:08.637Z,100047.53
2022-07-30T05:03:13.468Z,100048.41
2022-07-30T05:08:17.502Z,100044.06
2022-07-30T05:13:18.191Z,100050.59
2022-07-30T05:18:24.264Z,100040.31
2022-07-30T05:23:24.941Z,100036.09
2022-07-30T05:28:56.666Z,100035.69
2022-07-30T05:34:06.460Z,100041.09
2022-07-30T05:39:16.231Z,100046.72
2022-07-30T05:44:35.448Z,100049.66
2022-07-30T05:49:37.419Z,100045.69
2022-07-30T05:54:41.986Z,100052.31
2022-07-30T06:00:01.939Z,100045.31
2022-07-30T06:05:18.883Z,100056.38
2022-07-30T06:10:20.365Z,100060.59
2022-07-30T06:15:25.775Z,100068.63
2022-07-30T06:20:28.976Z,100079.59
2022-07-30T06:25:55.950Z,100084.63
2022-07-30T06:30:57.247Z,100079.84
2022-07-30T06:36:02.185Z,100087.50
2022-07-30T06:41:10.403Z,100095.75
2022-07-30T06:46:24.057Z,100096.00
2022-07-30T06:51:27.842Z,100094.63
2022-07-30T06:56:28.518Z,100096.56
2022-07-30T07:01:33.785Z,100100.94
2022-07-30T07:06:36.190Z,100102.56
2022-07-30T07:11:37.055Z,100102.44
2022-07-30T07:16:42.755Z,100111.53
2022-07-30T07:22:09.621Z,100110.28
2022-07-30T07:27:15.328Z,100108.56
2022-07-30T07:32:17.722Z,100115.88
2022-07-30T07:37:19.684Z,100122.53
2022-07-30T07:42:20.808Z,100121.00
2022-07-30T07:47:22.599Z,100114.88
2022-07-30T07:52:38.846Z,100119.44
2022-07-30T07:57:40.758Z,100116.47
2022-07-30T08:02:42.542Z,100121.75
2022-07-30T08:07:45.715Z,100129.06
2022-07-30T08:13:05.280Z,100124.41
2022-07-30T08:18:28.603Z,100128.00
2022-07-30T08:23:44.628Z,100134.19
2022-07-30T08:28:45.807Z,100132.03
2022-07-30T08:33:47.039Z,100137.06
2022-07-30T08:38:49.645Z,100128.81
2022-07-30T08:43:52.071Z,100133.56
2022-07-30T08:48:55.792Z,100134.19
2022-07-30T08:54:01.149Z,100140.63
2022-07-30T08:59:02.596Z,100145.97
2022-07-30T09:04:03.510Z,100137.63
2022-07-30T09:09:05.734Z,100136.94
2022-07-30T09:14:10.247Z,100151.34
2022-07-30T09:19:16.347Z,100158.22
2022-07-30T09:24:19.141Z,100155.69
2022-07-30T09:29:40.051Z,100154.94
2022-07-30T09:35:13.875Z,100164.25
2022-07-30T09:40:57.324Z,100167.16
2022-07-30T09:46:21.145Z,100178.75
2022-07-30T09:52:06.715Z,100182.81
2022-07-30T09:57:26.422Z,100175.28
2022-07-30T10:02:37.739Z,100176.03
2022-07-30T10:08:09.214Z,100173.91
2022-07-30T10:13:20.809Z,100173.22
2022-07-30T10:18:23.247Z,100181.47
2022-07-30T10:23:27.091Z,100187.78
2022-07-30T10:28:48.070Z,100189.25
2022-07-30T10:33:49.022Z,100191.22
2022-07-30T10:38:52.942Z,100180.09
2022-07-30T10:44:15.753Z,100186.75
2022-07-30T10:49:18.828Z,100192.03
2022-07-30T10:54:40.355Z,100193.06
2022-07-30T11:00:15.636Z,100188.56
2022-07-30T11:05:44.013Z,100190.06
2022-07-30T11:10:46.598Z,100189.22
2022-07-30T11:15:57.197Z,100189.25
2022-07-30T11:21:21.509Z,100177.44
2022-07-30T11:26:49.122Z,100176.09
2022-07-30T11:32:07.619Z,100174.44
2022-07-30T11:37:19.093Z,100176.66
2022-07-30T11:42:26.892Z,100168.31
2022-07-30T11:47:30.484Z,100159.50
2022-07-30T11:52:31.357Z,100171.69
2022-07-30T11:57:40.702Z,100166.34
2022-07-30T12:02:42.729Z,100166.00
2022-07-30T12:07:43.878Z,100178.66
2022-07-30T12:12:45.838Z,100176.88
2022-07-30T12:17:47.932Z,100186.34
2022-07-30T12:22:49.061Z,100174.69
2022-07-30T12:27:52.352Z,100175.72
2022-07-30T12:32:54.665Z,100175.44
2022-07-30T12:38:06.009Z,100171.88
2022-07-30T12:43:06.849Z,100168.50
2022-07-30T12:48:16.091Z,100167.06
2022-07-30T12:53:17.089Z,100168.53
2022-07-30T12:58:17.849Z,100166.94
2022-07-30T13:03:24.518Z,100172.91
2022-07-30T13:08:46.439Z,100165.16
2022-07-30T13:13:47.722Z,100164.00
2022-07-30T13:18:49.796Z,100169.19
2022-07-30T13:23:50.546Z,100175.91
2022-07-30T13:28:51.309Z,100161.31
2022-07-30T13:33:53.671Z,100178.94
2022-07-30T13:38:54.564Z,100165.03
2022-07-30T13:43:55.497Z,100165.94
2022-07-30T13:48:57.464Z,100168.03
2022-07-30T13:53:58.323Z,100175.09
2022-07-30T13:58:59.887Z,100169.78
2022-07-30T14:04:01.820Z,100170.28
2022-07-30T14:09:02.547Z,100176.25
2022-07-30T14:14:03.231Z,100190.31
2022-07-30T14:19:05.336Z,100189.53
2022-07-30T14:24:07.991Z,100184.75
2022-07-30T14:29:09.293Z,100178.69
2022-07-30T14:34:11.290Z,100176.88
2022-07-30T14:39:12.178Z,100178.44
2022-07-30T14:44:13.788Z,100173.91
2022-07-30T14:49:19.376Z,100182.53
2022-07-30T14:54:20.420Z,100183.16
2022-07-30T14:59:21.567Z,100179.38
2022-07-30T15:04:23.594Z,100187.34
2022-07-30T15:09:24.297Z,100182.72
2022-07-30T15:14:26.921Z,100181.69
2022-07-30T15:19:30.459Z,100176.03
2022-07-30T15:24:31.652Z,100178.94
2022-07-30T15:29:32.666Z,100195.03
2022-07-30T15:34:35.914Z,100195.94
2022-07-30T15:39:36.601Z,100185.59
2022-07-30T15:44:42.261Z,100191.00
2022-07-30T15:49:50.591Z,100198.81
2022-07-30T15:54:52.351Z,100193.81
2022-07-30T15:59:53.343Z,100192.56
2022-07-30T16:04:55.309Z,100195.75
2022-07-30T16:09:55.931Z,100187.13
2022-07-30T16:14:56.540Z,100200.69
2022-07-30T16:19:58.493Z,100210.53
2022-07-30T16:24:59.109Z,100205.38
2022-07-30T16:29:59.791Z,100208.94
2022-07-30T16:35:01.922Z,100203.63
2022-07-30T16:40:03.955Z,100212.56
2022-07-30T16:45:05.249Z,100232.03
2022-07-30T16:50:09.437Z,100222.38
2022-07-30T16:55:10.343Z,100231.34
2022-07-30T17:00:13.020Z,100237.22
2022-07-30T17:05:14.930Z,100251.09
2022-07-30T17:10:15.590Z,100261.50
2022-07-30T17:15:32.374Z,100273.09
2022-07-30T17:20:35.503Z,100271.94
2022-07-30T17:25:36.138Z,100262.47
2022-07-30T17:30:36.848Z,100273.09
2022-07-30T17:35:38.808Z,100269.94
2022-07-30T17:40:39.478Z,100272.72
2022-07-30T17:45:40.213Z,100271.78
2022-07-30T17:50:42.168Z,100280.69
2022-07-30T17:55:57.945Z,100281.94
2022-07-30T18:01:02.575Z,100282.56
2022-07-30T18:06:04.950Z,100287.81
2022-07-30T18:11:08.600Z,100291.00
2022-07-30T18:16:11.746Z,100300.50
2022-07-30T18:21:14.432Z,100299.97
2022-07-30T18:26:15.354Z,100302.09
2022-07-30T18:31:16.107Z,100314.81
2022-07-30T18:36:18.181Z,100314.31
2022-07-30T18:41:19.413Z,100312.31
2022-07-30T18:46:21.300Z,100324.84
2022-07-30T18:51:25.154Z,100338.78
2022-07-30T18:56:26.870Z,100333.47
2022-07-30T19:01:27.642Z,100334.75
2022-07-30T19:06:31.366Z,100346.25
2022-07-30T19:11:32.364Z,100347.53
2022-07-30T19:16:33.201Z,100351.81
2022-07-30T19:21:35.580Z,100352.88
2022-07-30T19:26:38.922Z,100352.94
2022-07-30T19:31:41.655Z,100348.16
2022-07-30T19:36:43.995Z,100350.13
2022-07-30T19:41:44.958Z,100345.06
2022-07-30T19:46:46.205Z,100354.75
2022-07-30T19:52:10.080Z,100360.63
2022-07-30T19:57:13.390Z,100362.72
2022-07-30T20:02:15.640Z,100358.66
2022-07-30T20:07:17.753Z,100353.84
2022-07-30T20:12:18.360Z,100359.63
2022-07-30T20:17:19.063Z,100363.53
2022-07-30T20:22:21.215Z,100357.81
2022-07-30T20:27:36.560Z,100360.66
2022-07-30T20:32:43.544Z,100357.28
2022-07-30T20:37:54.809Z,100358.81
2022-07-30T20:42:56.653Z,100354.53
2022-07-30T20:48:01.715Z,100365.28
2022-07-30T20:53:04.162Z,100354.41
2022-07-30T20:58:09.977Z,100358.72
2022-07-30T21:03:18.433Z,100362.41
2022-07-30T21:08:25.606Z,100362.53
2022-07-30T21:13:26.893Z,100368.09
2022-07-30T21:18:27.591Z,100372.25
2022-07-30T21:23:29.574Z,100364.03
2022-07-30T21:28:35.362Z,100366.63
2022-07-30T21:33:36.939Z,100374.56
2022-07-30T21:38:41.857Z,100375.38
2022-07-30T21:43:43.742Z,100375.53
2022-07-30T21:48:44.485Z,100382.59
2022-07-30T21:53:46.969Z,100379.22
2022-07-30T21:58:48.601Z,100378.25
2022-07-30T22:04:04.568Z,100381.00
2022-07-30T22:09:19.610Z,100378.81
2022-07-30T22:14:34.047Z,100380.47
2022-07-30T22:19:35.870Z,100394.34
2022-07-30T22:24:38.543Z,100376.63
2022-07-30T22:29:42.556Z,100373.88
2022-07-30T22:34:43.342Z,100379.31
2022-07-30T22:45:08.673Z,100370.84
2022-07-30T22:50:11.589Z,100361.63
2022-07-30T22:55:14.452Z,100356.72
2022-07-30T23:00:27.915Z,100352.84
2022-07-30T23:05:29.161Z,100353.22
2022-07-30T23:10:31.622Z,100346.97
2022-07-30T23:12:32.622Z,100369.78
2022-07-30T23:15:33.088Z,100345.72
2022-07-30T23:20:34.062Z,100340.00
2022-07-30T23:25:39.102Z,100334.81
2022-07-30T23:30:39.992Z,100327.03
2022-07-30T23:35:41.337Z,100317.88
2022-07-30T23:40:43.256Z,100321.38
2022-07-30T23:45:44.548Z,100319.63
2022-07-30T23:50:45.422Z,100321.50
2022-07-30T23:55:49.736Z,100320.69
